sensor_id;sensor_type;location;lat;lon;timestamp;pressure;altitude;pressure_sealevel;temperature;humidity
51781;BME280;37844;57.126;24.288;2023-04-08T00:00:23;102401.63;;;8.26;98.30
51781;BME280;37844;57.126;24.288;2023-04-08T00:03:07;102397.75;;;8.16;99.54
51781;BME280;37844;57.126;24.288;2023-04-08T00:05:51;102399.41;;;8.16;99.53
51781;BME280;37844;57.126;24.288;2023-04-08T00:08:35;102401.81;;;8.13;100.00
51781;BME280;37844;57.126;24.288;2023-04-08T00:11:19;102401.28;;;8.02;100.00
51781;BME280;37844;57.126;24.288;2023-04-08T00:14:03;102396.47;;;8.08;100.00
51781;BME280;37844;57.126;24.288;2023-04-08T00:16:47;102387.41;;;7.98;100.00
51781;BME280;37844;57.126;24.288;2023-04-08T00:19:31;102395.47;;;7.88;100.00
51781;BME280;37844;57.126;24.288;2023-04-08T00:22:16;102397.00;;;7.84;100.00
51781;BME280;37844;57.126;24.288;2023-04-08T00:25:00;102397.47;;;7.94;100.00
51781;BME280;37844;57.126;24.288;2023-04-08T00:27:45;102400.63;;;7.88;100.00
51781;BME280;37844;57.126;24.288;2023-04-08T00:30:29;102403.81;;;7.84;100.00
51781;BME280;37844;57.126;24.288;2023-04-08T00:33:13;102400.38;;;7.83;100.00
51781;BME280;37844;57.126;24.288;2023-04-08T00:36:04;102403.84;;;7.68;100.00
51781;BME280;37844;57.126;24.288;2023-04-08T00:38:48;102406.41;;;7.68;100.00
51781;BME280;37844;57.126;24.288;2023-04-08T00:41:32;102403.34;;;7.58;100.00
51781;BME280;37844;57.126;24.288;2023-04-08T00:44:16;102408.50;;;7.58;100.00
51781;BME280;37844;57.126;24.288;2023-04-08T00:47:00;102400.88;;;7.60;100.00
51781;BME280;37844;57.126;24.288;2023-04-08T00:49:44;102399.19;;;7.60;100.00
51781;BME280;37844;57.126;24.288;2023-04-08T00:52:28;102397.69;;;7.48;100.00
51781;BME280;37844;57.126;24.288;2023-04-08T00:55:12;102396.78;;;7.47;100.00
51781;BME280;37844;57.126;24.288;2023-04-08T00:57:56;102395.91;;;7.47;100.00
51781;BME280;37844;57.126;24.288;2023-04-08T01:00:42;102395.84;;;7.45;100.00
51781;BME280;37844;57.126;24.288;2023-04-08T01:03:37;102398.47;;;7.47;100.00
51781;BME280;37844;57.126;24.288;2023-04-08T01:07:00;102397.50;;;7.44;100.00
51781;BME280;37844;57.126;24.288;2023-04-08T01:09:37;102392.69;;;7.51;100.00
51781;BME280;37844;57.126;24.288;2023-04-08T01:12:24;102402.97;;;7.51;100.00
51781;BME280;37844;57.126;24.288;2023-04-08T01:15:10;102401.28;;;7.51;100.00
51781;BME280;37844;57.126;24.288;2023-04-08T01:17:55;102398.72;;;7.51;100.00
51781;BME280;37844;57.126;24.288;2023-04-08T01:20:41;102395.34;;;7.36;100.00
51781;BME280;37844;57.126;24.288;2023-04-08T01:26:19;102400.03;;;7.12;100.00
51781;BME280;37844;57.126;24.288;2023-04-08T01:29:04;102400.13;;;7.13;100.00
51781;BME280;37844;57.126;24.288;2023-04-08T01:31:50;102399.81;;;7.07;100.00
51781;BME280;37844;57.126;24.288;2023-04-08T01:34:35;102400.50;;;7.05;100.00
51781;BME280;37844;57.126;24.288;2023-04-08T01:37:21;102407.00;;;6.98;100.00
51781;BME280;37844;57.126;24.288;2023-04-08T01:40:06;102277.84;;;6.32;100.00
51781;BME280;37844;57.126;24.288;2023-04-08T01:42:51;102402.69;;;7.13;100.00
51781;BME280;37844;57.126;24.288;2023-04-08T01:45:36;102403.41;;;7.11;100.00
51781;BME280;37844;57.126;24.288;2023-04-08T01:48:20;102400.75;;;7.09;100.00
51781;BME280;37844;57.126;24.288;2023-04-08T01:51:04;102409.50;;;7.13;100.00
51781;BME280;37844;57.126;24.288;2023-04-08T01:53:48;102401.47;;;7.07;100.00
51781;BME280;37844;57.126;24.288;2023-04-08T01:56:35;102398.59;;;7.00;100.00
51781;BME280;37844;57.126;24.288;2023-04-08T01:59:19;102405.16;;;6.95;100.00
51781;BME280;37844;57.126;24.288;2023-04-08T02:02:05;102398.56;;;6.84;100.00
51781;BME280;37844;57.126;24.288;2023-04-08T02:04:51;102409.47;;;6.65;100.00
51781;BME280;37844;57.126;24.288;2023-04-08T02:07:36;102403.09;;;6.73;100.00
51781;BME280;37844;57.126;24.288;2023-04-08T02:10:20;102409.53;;;6.82;100.00
51781;BME280;37844;57.126;24.288;2023-04-08T02:13:04;102407.03;;;6.83;100.00
51781;BME280;37844;57.126;24.288;2023-04-08T02:15:51;102408.00;;;6.85;100.00
51781;BME280;37844;57.126;24.288;2023-04-08T02:18:39;102407.84;;;6.82;100.00
51781;BME280;37844;57.126;24.288;2023-04-08T02:21:27;102410.16;;;6.77;100.00
51781;BME280;37844;57.126;24.288;2023-04-08T02:24:13;102411.91;;;6.78;100.00
51781;BME280;37844;57.126;24.288;2023-04-08T02:27:00;102405.03;;;6.77;100.00
51781;BME280;37844;57.126;24.288;2023-04-08T02:29:46;102416.09;;;6.62;100.00
51781;BME280;37844;57.126;24.288;2023-04-08T02:32:32;102406.50;;;6.57;100.00
51781;BME280;37844;57.126;24.288;2023-04-08T02:35:17;102413.03;;;6.52;100.00
51781;BME280;37844;57.126;24.288;2023-04-08T02:38:01;102411.28;;;6.51;100.00
51781;BME280;37844;57.126;24.288;2023-04-08T02:40:47;102415.34;;;6.48;100.00
51781;BME280;37844;57.126;24.288;2023-04-08T02:43:31;102413.22;;;6.41;100.00
51781;BME280;37844;57.126;24.288;2023-04-08T02:46:15;102419.03;;;6.38;100.00
51781;BME280;37844;57.126;24.288;2023-04-08T02:48:59;102420.47;;;6.18;100.00
51781;BME280;37844;57.126;24.288;2023-04-08T02:51:43;102416.94;;;6.16;100.00
51781;BME280;37844;57.126;24.288;2023-04-08T02:54:27;102423.81;;;6.02;100.00
51781;BME280;37844;57.126;24.288;2023-04-08T02:57:11;102413.44;;;5.86;100.00
51781;BME280;37844;57.126;24.288;2023-04-08T02:59:55;102415.28;;;5.88;100.00
51781;BME280;37844;57.126;24.288;2023-04-08T03:02:39;102424.00;;;6.05;100.00
51781;BME280;37844;57.126;24.288;2023-04-08T03:05:25;102417.91;;;6.18;100.00
51781;BME280;37844;57.126;24.288;2023-04-08T03:08:09;102417.22;;;6.06;100.00
51781;BME280;37844;57.126;24.288;2023-04-08T03:10:53;102419.47;;;5.86;100.00
51781;BME280;37844;57.126;24.288;2023-04-08T03:13:37;102421.09;;;5.71;100.00
51781;BME280;37844;57.126;24.288;2023-04-08T03:16:21;102422.59;;;5.67;100.00
51781;BME280;37844;57.126;24.288;2023-04-08T03:19:05;102415.97;;;5.71;100.00
51781;BME280;37844;57.126;24.288;2023-04-08T03:21:49;102416.69;;;5.68;100.00
51781;BME280;37844;57.126;24.288;2023-04-08T03:24:33;102424.94;;;5.64;100.00
51781;BME280;37844;57.126;24.288;2023-04-08T03:27:17;102420.91;;;5.68;100.00
51781;BME280;37844;57.126;24.288;2023-04-08T03:30:01;102422.34;;;5.78;100.00
51781;BME280;37844;57.126;24.288;2023-04-08T03:32:45;102420.91;;;5.96;100.00
51781;BME280;37844;57.126;24.288;2023-04-08T03:35:29;102425.75;;;6.06;100.00
51781;BME280;37844;57.126;24.288;2023-04-08T03:38:13;102416.00;;;5.86;100.00
51781;BME280;37844;57.126;24.288;2023-04-08T03:40:56;102429.63;;;5.71;100.00
51781;BME280;37844;57.126;24.288;2023-04-08T03:43:40;102423.53;;;5.69;100.00
51781;BME280;37844;57.126;24.288;2023-04-08T03:46:24;102429.50;;;5.83;100.00
51781;BME280;37844;57.126;24.288;2023-04-08T03:49:08;102431.88;;;5.80;100.00
51781;BME280;37844;57.126;24.288;2023-04-08T03:51:52;102432.31;;;5.73;100.00
51781;BME280;37844;57.126;24.288;2023-04-08T03:54:36;102429.75;;;5.73;100.00
51781;BME280;37844;57.126;24.288;2023-04-08T03:57:20;102426.47;;;5.76;100.00
51781;BME280;37844;57.126;24.288;2023-04-08T04:00:04;102432.19;;;6.00;100.00
51781;BME280;37844;57.126;24.288;2023-04-08T04:02:49;102432.13;;;5.98;100.00
51781;BME280;37844;57.126;24.288;2023-04-08T04:05:32;102432.16;;;5.85;100.00
51781;BME280;37844;57.126;24.288;2023-04-08T04:08:16;102437.09;;;5.82;100.00
51781;BME280;37844;57.126;24.288;2023-04-08T04:11:00;102435.59;;;5.85;100.00
51781;BME280;37844;57.126;24.288;2023-04-08T04:13:51;102441.97;;;5.92;100.00
51781;BME280;37844;57.126;24.288;2023-04-08T04:16:35;102439.69;;;5.68;100.00
51781;BME280;37844;57.126;24.288;2023-04-08T04:19:19;102442.38;;;5.85;100.00
51781;BME280;37844;57.126;24.288;2023-04-08T04:22:03;102446.63;;;5.84;100.00
51781;BME280;37844;57.126;24.288;2023-04-08T04:24:47;102440.25;;;5.78;100.00
51781;BME280;37844;57.126;24.288;2023-04-08T04:27:31;102453.94;;;5.93;100.00
51781;BME280;37844;57.126;24.288;2023-04-08T04:30:15;102452.44;;;6.10;100.00
51781;BME280;37844;57.126;24.288;2023-04-08T04:33:00;102455.25;;;6.14;100.00
51781;BME280;37844;57.126;24.288;2023-04-08T04:35:44;102452.16;;;6.35;100.00
51781;BME280;37844;57.126;24.288;2023-04-08T04:38:27;102454.72;;;6.50;100.00
51781;BME280;37844;57.126;24.288;2023-04-08T04:41:11;102459.03;;;6.66;100.00
51781;BME280;37844;57.126;24.288;2023-04-08T04:43:55;102460.84;;;6.83;100.00
51781;BME280;37844;57.126;24.288;2023-04-08T04:46:39;102464.38;;;7.00;100.00
51781;BME280;37844;57.126;24.288;2023-04-08T04:49:23;102458.84;;;7.40;100.00
51781;BME280;37844;57.126;24.288;2023-04-08T04:52:07;102460.44;;;7.87;100.00
51781;BME280;37844;57.126;24.288;2023-04-08T04:54:51;102461.31;;;7.88;100.00
51781;BME280;37844;57.126;24.288;2023-04-08T04:57:35;102465.06;;;8.11;100.00
51781;BME280;37844;57.126;24.288;2023-04-08T05:00:19;102467.91;;;8.49;100.00
51781;BME280;37844;57.126;24.288;2023-04-08T05:03:03;102466.22;;;8.68;100.00
51781;BME280;37844;57.126;24.288;2023-04-08T05:05:53;102471.47;;;8.87;100.00
51781;BME280;37844;57.126;24.288;2023-04-08T05:08:37;102469.50;;;9.19;100.00
51781;BME280;37844;57.126;24.288;2023-04-08T05:11:21;102473.28;;;9.45;100.00
51781;BME280;37844;57.126;24.288;2023-04-08T05:14:05;102478.63;;;9.30;100.00
51781;BME280;37844;57.126;24.288;2023-04-08T05:16:49;102473.56;;;9.14;100.00
51781;BME280;37844;57.126;24.288;2023-04-08T05:19:33;102469.94;;;9.87;98.66
51781;BME280;37844;57.126;24.288;2023-04-08T05:22:18;102472.91;;;10.35;92.89
51781;BME280;37844;57.126;24.288;2023-04-08T05:25:02;102470.16;;;10.51;88.16
51781;BME280;37844;57.126;24.288;2023-04-08T05:27:46;102473.22;;;11.07;83.07
51781;BME280;37844;57.126;24.288;2023-04-08T05:30:30;102475.22;;;10.92;78.65
51781;BME280;37844;57.126;24.288;2023-04-08T05:33:14;102474.41;;;11.15;75.44
51781;BME280;37844;57.126;24.288;2023-04-08T05:35:59;102474.16;;;11.09;74.16
51781;BME280;37844;57.126;24.288;2023-04-08T05:38:43;102484.72;;;12.08;73.35
51781;BME280;37844;57.126;24.288;2023-04-08T05:41:27;102476.69;;;12.01;70.24
51781;BME280;37844;57.126;24.288;2023-04-08T05:44:11;102473.22;;;12.26;68.86
51781;BME280;37844;57.126;24.288;2023-04-08T05:46:55;102473.66;;;13.21;66.57
51781;BME280;37844;57.126;24.288;2023-04-08T05:49:40;102473.06;;;13.58;64.37
51781;BME280;37844;57.126;24.288;2023-04-08T05:52:24;102481.66;;;13.00;63.61
51781;BME280;37844;57.126;24.288;2023-04-08T05:55:08;102475.94;;;14.01;61.58
51781;BME280;37844;57.126;24.288;2023-04-08T05:57:52;102481.19;;;14.03;61.58
51781;BME280;37844;57.126;24.288;2023-04-08T06:00:36;102478.53;;;14.68;59.84
51781;BME280;37844;57.126;24.288;2023-04-08T06:03:20;102475.81;;;15.42;58.88
51781;BME280;37844;57.126;24.288;2023-04-08T06:06:08;102482.31;;;15.20;56.49
51781;BME280;37844;57.126;24.288;2023-04-08T06:08:52;102485.59;;;15.52;56.21
51781;BME280;37844;57.126;24.288;2023-04-08T06:11:37;102488.03;;;15.87;55.55
51781;BME280;37844;57.126;24.288;2023-04-08T06:14:20;102487.00;;;16.78;54.15
51781;BME280;37844;57.126;24.288;2023-04-08T06:17:05;102485.13;;;16.69;52.55
51781;BME280;37844;57.126;24.288;2023-04-08T06:19:48;102483.66;;;17.49;52.77
51781;BME280;37844;57.126;24.288;2023-04-08T06:22:32;102484.69;;;18.52;50.66
51781;BME280;37844;57.126;24.288;2023-04-08T06:25:16;102488.53;;;16.66;50.37
51781;BME280;37844;57.126;24.288;2023-04-08T06:28:00;102483.19;;;18.80;49.08
51781;BME280;37844;57.126;24.288;2023-04-08T06:30:44;102490.63;;;19.70;46.55
51781;BME280;37844;57.126;24.288;2023-04-08T06:33:28;102488.81;;;19.51;45.86
51781;BME280;37844;57.126;24.288;2023-04-08T06:36:12;102488.94;;;20.00;45.48
51781;BME280;37844;57.126;24.288;2023-04-08T06:38:56;102487.22;;;20.09;44.01
51781;BME280;37844;57.126;24.288;2023-04-08T06:41:40;102495.97;;;20.73;43.11
51781;BME280;37844;57.126;24.288;2023-04-08T06:44:24;102489.72;;;21.29;42.63
51781;BME280;37844;57.126;24.288;2023-04-08T06:47:08;102487.94;;;21.37;42.13
51781;BME280;37844;57.126;24.288;2023-04-08T06:49:52;102492.28;;;19.51;43.74
51781;BME280;37844;57.126;24.288;2023-04-08T06:52:37;102501.22;;;20.79;42.27
51781;BME280;37844;57.126;24.288;2023-04-08T06:55:21;102499.47;;;20.73;41.94
51781;BME280;37844;57.126;24.288;2023-04-08T06:58:04;102492.31;;;21.45;41.79
51781;BME280;37844;57.126;24.288;2023-04-08T07:00:48;102488.78;;;22.75;41.16
51781;BME280;37844;57.126;24.288;2023-04-08T07:03:33;102496.22;;;23.21;39.39
51781;BME280;37844;57.126;24.288;2023-04-08T07:06:17;102493.97;;;22.80;39.42
51781;BME280;37844;57.126;24.288;2023-04-08T07:09:01;102493.94;;;23.63;39.28
51781;BME280;37844;57.126;24.288;2023-04-08T07:11:45;102493.50;;;23.94;38.89
51781;BME280;37844;57.126;24.288;2023-04-08T07:14:29;102495.91;;;24.08;38.22
51781;BME280;37844;57.126;24.288;2023-04-08T07:17:13;102496.56;;;24.22;38.81
51781;BME280;37844;57.126;24.288;2023-04-08T07:19:57;102495.50;;;23.78;39.36
51781;BME280;37844;57.126;24.288;2023-04-08T07:22:41;102498.34;;;25.23;38.00
51781;BME280;37844;57.126;24.288;2023-04-08T07:25:25;102498.41;;;23.57;38.71
51781;BME280;37844;57.126;24.288;2023-04-08T07:28:09;102490.34;;;26.05;37.47
51781;BME280;37844;57.126;24.288;2023-04-08T07:30:53;102496.88;;;26.26;36.62
51781;BME280;37844;57.126;24.288;2023-04-08T07:33:37;102498.84;;;26.55;36.77
51781;BME280;37844;57.126;24.288;2023-04-08T07:36:21;102500.06;;;25.24;36.80
51781;BME280;37844;57.126;24.288;2023-04-08T07:39:05;102499.78;;;25.76;36.30
51781;BME280;37844;57.126;24.288;2023-04-08T07:41:49;102498.19;;;25.29;36.92
51781;BME280;37844;57.126;24.288;2023-04-08T07:44:33;102495.63;;;26.41;36.56
51781;BME280;37844;57.126;24.288;2023-04-08T07:47:17;102507.72;;;24.91;37.00
51781;BME280;37844;57.126;24.288;2023-04-08T07:50:01;102495.63;;;26.41;36.64
51781;BME280;37844;57.126;24.288;2023-04-08T07:52:45;102500.47;;;26.23;36.15
51781;BME280;37844;57.126;24.288;2023-04-08T07:55:33;102487.72;;;27.67;35.19
51781;BME280;37844;57.126;24.288;2023-04-08T07:58:17;102494.09;;;27.31;35.83
51781;BME280;37844;57.126;24.288;2023-04-08T08:01:01;102493.53;;;28.07;34.76
51781;BME280;37844;57.126;24.288;2023-04-08T08:03:45;102492.63;;;27.50;35.23
51781;BME280;37844;57.126;24.288;2023-04-08T08:06:29;102493.53;;;27.79;35.55
51781;BME280;37844;57.126;24.288;2023-04-08T08:09:17;102498.00;;;27.48;35.76
51781;BME280;37844;57.126;24.288;2023-04-08T08:12:01;102497.41;;;28.23;35.47
51781;BME280;37844;57.126;24.288;2023-04-08T08:14:45;102495.53;;;27.72;35.69
51781;BME280;37844;57.126;24.288;2023-04-08T08:17:29;102504.81;;;28.67;34.40
51781;BME280;37844;57.126;24.288;2023-04-08T08:20:16;102498.22;;;27.99;35.28
51781;BME280;37844;57.126;24.288;2023-04-08T08:22:59;102497.16;;;27.48;35.67
51781;BME280;37844;57.126;24.288;2023-04-08T08:25:43;102501.25;;;28.41;34.90
51781;BME280;37844;57.126;24.288;2023-04-08T08:28:27;102506.44;;;28.44;34.73
51781;BME280;37844;57.126;24.288;2023-04-08T08:31:11;102502.00;;;28.18;34.91
51781;BME280;37844;57.126;24.288;2023-04-08T08:33:56;102498.78;;;28.08;34.47
51781;BME280;37844;57.126;24.288;2023-04-08T08:36:40;102500.22;;;26.69;34.92
51781;BME280;37844;57.126;24.288;2023-04-08T08:39:24;102497.78;;;27.26;35.40
51781;BME280;37844;57.126;24.288;2023-04-08T08:42:18;102497.63;;;26.67;35.49
51781;BME280;37844;57.126;24.288;2023-04-08T08:45:03;102503.84;;;27.60;34.50
51781;BME280;37844;57.126;24.288;2023-04-08T08:47:47;102491.94;;;27.14;35.07
51781;BME280;37844;57.126;24.288;2023-04-08T08:50:31;102495.16;;;27.55;34.94
51781;BME280;37844;57.126;24.288;2023-04-08T08:53:15;102489.69;;;27.31;34.47
51781;BME280;37844;57.126;24.288;2023-04-08T08:56:00;102493.47;;;27.80;34.45
51781;BME280;37844;57.126;24.288;2023-04-08T08:58:44;102493.25;;;28.68;32.91
51781;BME280;37844;57.126;24.288;2023-04-08T09:01:32;102487.31;;;28.61;33.31
51781;BME280;37844;57.126;24.288;2023-04-08T09:04:16;102483.50;;;28.93;32.75
51781;BME280;37844;57.126;24.288;2023-04-08T09:07:09;102485.28;;;28.43;33.29
51781;BME280;37844;57.126;24.288;2023-04-08T09:09:54;102487.13;;;28.41;33.44
51781;BME280;37844;57.126;24.288;2023-04-08T09:12:54;102470.66;;;29.30;33.49
51781;BME280;37844;57.126;24.288;2023-04-08T09:15:59;102477.72;;;29.76;33.48
51781;BME280;37844;57.126;24.288;2023-04-08T09:18:43;102470.47;;;29.11;33.42
51781;BME280;37844;57.126;24.288;2023-04-08T09:21:28;102478.69;;;29.96;32.97
51781;BME280;37844;57.126;24.288;2023-04-08T09:24:28;102468.63;;;30.25;33.12
51781;BME280;37844;57.126;24.288;2023-04-08T09:27:13;102474.91;;;30.01;32.86
51781;BME280;37844;57.126;24.288;2023-04-08T09:30:11;102471.16;;;29.16;33.04
51781;BME280;37844;57.126;24.288;2023-04-08T09:32:56;102480.00;;;28.68;34.68
51781;BME280;37844;57.126;24.288;2023-04-08T09:35:41;102479.63;;;28.79;33.91
51781;BME280;37844;57.126;24.288;2023-04-08T09:38:24;102479.34;;;28.34;35.23
51781;BME280;37844;57.126;24.288;2023-04-08T09:41:10;102480.50;;;27.71;35.06
51781;BME280;37844;57.126;24.288;2023-04-08T09:43:56;102483.41;;;27.02;36.17
51781;BME280;37844;57.126;24.288;2023-04-08T09:49:52;102485.22;;;26.35;36.69
51781;BME280;37844;57.126;24.288;2023-04-08T09:52:44;102491.53;;;25.09;37.48
51781;BME280;37844;57.126;24.288;2023-04-08T09:55:30;102498.63;;;24.61;38.86
51781;BME280;37844;57.126;24.288;2023-04-08T09:58:21;102489.56;;;24.21;38.00
51781;BME280;37844;57.126;24.288;2023-04-08T10:01:11;102492.00;;;23.76;38.27
51781;BME280;37844;57.126;24.288;2023-04-08T10:03:56;102501.53;;;23.17;39.68
51781;BME280;37844;57.126;24.288;2023-04-08T10:06:41;102498.28;;;22.89;39.85
51781;BME280;37844;57.126;24.288;2023-04-08T10:09:25;102501.38;;;22.39;40.14
51781;BME280;37844;57.126;24.288;2023-04-08T10:12:10;102499.75;;;22.18;41.06
51781;BME280;37844;57.126;24.288;2023-04-08T10:20:51;102503.72;;;21.31;43.42
51781;BME280;37844;57.126;24.288;2023-04-08T10:23:54;102501.06;;;21.36;43.47
51781;BME280;37844;57.126;24.288;2023-04-08T10:26:40;102501.97;;;21.39;44.26
51781;BME280;37844;57.126;24.288;2023-04-08T10:32:26;102509.94;;;20.23;44.31
51781;BME280;37844;57.126;24.288;2023-04-08T10:35:11;102494.22;;;20.53;44.14
51781;BME280;37844;57.126;24.288;2023-04-08T10:37:59;102506.44;;;20.15;44.88
51781;BME280;37844;57.126;24.288;2023-04-08T10:40:43;102504.69;;;20.20;45.13
51781;BME280;37844;57.126;24.288;2023-04-08T10:43:34;102490.66;;;19.85;45.35
51781;BME280;37844;57.126;24.288;2023-04-08T10:46:19;102491.28;;;19.23;45.79
51781;BME280;37844;57.126;24.288;2023-04-08T10:49:04;102493.72;;;18.92;46.67
51781;BME280;37844;57.126;24.288;2023-04-08T10:51:48;102500.50;;;18.69;46.84
51781;BME280;37844;57.126;24.288;2023-04-08T10:54:32;102502.06;;;18.47;46.72
51781;BME280;37844;57.126;24.288;2023-04-08T10:57:22;102502.97;;;18.49;47.37
51781;BME280;37844;57.126;24.288;2023-04-08T11:00:09;102498.41;;;18.26;47.29
51781;BME280;37844;57.126;24.288;2023-04-08T11:02:54;102502.72;;;18.24;47.52
51781;BME280;37844;57.126;24.288;2023-04-08T11:05:38;102501.94;;;18.33;46.29
51781;BME280;37844;57.126;24.288;2023-04-08T11:08:26;102503.59;;;18.21;46.61
51781;BME280;37844;57.126;24.288;2023-04-08T11:11:10;102506.06;;;18.09;46.55
51781;BME280;37844;57.126;24.288;2023-04-08T11:13:55;102502.44;;;17.92;46.83
51781;BME280;37844;57.126;24.288;2023-04-08T11:16:45;102496.22;;;17.80;47.12
51781;BME280;37844;57.126;24.288;2023-04-08T11:19:30;102507.69;;;17.26;47.24
51781;BME280;37844;57.126;24.288;2023-04-08T11:22:14;102509.09;;;17.03;48.68
51781;BME280;37844;57.126;24.288;2023-04-08T11:24:59;102511.47;;;16.87;48.87
51781;BME280;37844;57.126;24.288;2023-04-08T11:27:43;102505.38;;;16.87;48.82
51781;BME280;37844;57.126;24.288;2023-04-08T11:30:27;102506.66;;;16.60;48.04
51781;BME280;37844;57.126;24.288;2023-04-08T11:33:12;102502.59;;;16.24;48.94
51781;BME280;37844;57.126;24.288;2023-04-08T11:35:57;102502.53;;;16.21;50.03
51781;BME280;37844;57.126;24.288;2023-04-08T11:38:44;102495.59;;;16.22;49.70
51781;BME280;37844;57.126;24.288;2023-04-08T11:41:37;102492.53;;;15.96;49.57
51781;BME280;37844;57.126;24.288;2023-04-08T11:44:31;102492.47;;;15.93;50.56
51781;BME280;37844;57.126;24.288;2023-04-08T11:47:18;102501.28;;;16.01;50.88
51781;BME280;37844;57.126;24.288;2023-04-08T11:50:02;102498.69;;;16.01;51.04
51781;BME280;37844;57.126;24.288;2023-04-08T11:52:46;102503.53;;;15.82;50.24
51781;BME280;37844;57.126;24.288;2023-04-08T11:55:31;102501.38;;;15.63;50.60
51781;BME280;37844;57.126;24.288;2023-04-08T11:58:16;102496.09;;;15.58;50.58
51781;BME280;37844;57.126;24.288;2023-04-08T12:01:00;102505.47;;;15.52;50.87
51781;BME280;37844;57.126;24.288;2023-04-08T12:04:03;102505.09;;;14.94;51.18
51781;BME280;37844;57.126;24.288;2023-04-08T12:06:47;102500.38;;;15.15;51.84
51781;BME280;37844;57.126;24.288;2023-04-08T12:09:31;102508.06;;;15.09;51.98
51781;BME280;37844;57.126;24.288;2023-04-08T12:12:15;102502.88;;;15.11;53.98
51781;BME280;37844;57.126;24.288;2023-04-08T12:14:59;102506.19;;;15.03;53.40
51781;BME280;37844;57.126;24.288;2023-04-08T12:17:43;102510.25;;;14.92;54.44
51781;BME280;37844;57.126;24.288;2023-04-08T12:20:28;102503.84;;;14.76;54.91
51781;BME280;37844;57.126;24.288;2023-04-08T12:23:12;102506.75;;;14.90;55.54
51781;BME280;37844;57.126;24.288;2023-04-08T12:25:56;102498.97;;;14.90;55.71
51781;BME280;37844;57.126;24.288;2023-04-08T12:28:40;102497.66;;;14.71;55.52
51781;BME280;37844;57.126;24.288;2023-04-08T12:31:24;102496.56;;;14.63;55.51
51781;BME280;37844;57.126;24.288;2023-04-08T12:34:10;102491.38;;;14.63;56.06
51781;BME280;37844;57.126;24.288;2023-04-08T12:36:54;102500.94;;;14.64;56.71
51781;BME280;37844;57.126;24.288;2023-04-08T12:39:38;102498.69;;;14.79;58.60
51781;BME280;37844;57.126;24.288;2023-04-08T12:42:22;102492.69;;;14.47;58.46
51781;BME280;37844;57.126;24.288;2023-04-08T12:45:06;102498.94;;;14.54;59.84
51781;BME280;37844;57.126;24.288;2023-04-08T12:47:51;102499.06;;;14.25;59.92
51781;BME280;37844;57.126;24.288;2023-04-08T12:50:35;102491.03;;;14.16;59.67
51781;BME280;37844;57.126;24.288;2023-04-08T12:53:19;102495.44;;;13.87;61.11
51781;BME280;37844;57.126;24.288;2023-04-08T12:56:04;102485.81;;;13.83;60.79
51781;BME280;37844;57.126;24.288;2023-04-08T12:58:48;102475.81;;;13.96;61.91
51781;BME280;37844;57.126;24.288;2023-04-08T13:01:31;102480.00;;;13.91;63.47
51781;BME280;37844;57.126;24.288;2023-04-08T13:04:16;102480.34;;;14.04;63.75
51781;BME280;37844;57.126;24.288;2023-04-08T13:06:59;102478.00;;;14.13;62.74
51781;BME280;37844;57.126;24.288;2023-04-08T13:09:44;102465.41;;;14.28;61.69
51781;BME280;37844;57.126;24.288;2023-04-08T13:12:28;102472.97;;;14.19;59.91
51781;BME280;37844;57.126;24.288;2023-04-08T13:15:12;102465.88;;;14.13;60.62
51781;BME280;37844;57.126;24.288;2023-04-08T13:18:05;102467.00;;;14.23;60.72
51781;BME280;37844;57.126;24.288;2023-04-08T13:20:49;102469.69;;;14.26;62.24
51781;BME280;37844;57.126;24.288;2023-04-08T13:23:32;102467.09;;;13.93;61.43
51781;BME280;37844;57.126;24.288;2023-04-08T13:26:23;102459.91;;;14.16;61.27
51781;BME280;37844;57.126;24.288;2023-04-08T13:29:15;102462.16;;;14.37;62.13
51781;BME280;37844;57.126;24.288;2023-04-08T13:31:59;102464.81;;;14.40;62.29
51781;BME280;37844;57.126;24.288;2023-04-08T13:34:44;102455.75;;;14.56;61.22
51781;BME280;37844;57.126;24.288;2023-04-08T13:37:28;102460.84;;;14.53;60.02
51781;BME280;37844;57.126;24.288;2023-04-08T13:40:12;102456.06;;;14.35;59.24
51781;BME280;37844;57.126;24.288;2023-04-08T13:42:57;102459.31;;;14.26;59.89
51781;BME280;37844;57.126;24.288;2023-04-08T13:45:41;102457.41;;;14.19;59.61
51781;BME280;37844;57.126;24.288;2023-04-08T13:48:26;102456.38;;;14.14;59.57
51781;BME280;37844;57.126;24.288;2023-04-08T13:51:10;102463.09;;;14.06;60.93
51781;BME280;37844;57.126;24.288;2023-04-08T13:53:54;102451.00;;;13.73;59.91
51781;BME280;37844;57.126;24.288;2023-04-08T13:56:38;102461.22;;;13.68;59.92
51781;BME280;37844;57.126;24.288;2023-04-08T13:59:21;102455.22;;;13.39;61.29
51781;BME280;37844;57.126;24.288;2023-04-08T14:02:05;102450.13;;;13.42;61.76
51781;BME280;37844;57.126;24.288;2023-04-08T14:04:50;102441.97;;;13.58;62.11
51781;BME280;37844;57.126;24.288;2023-04-08T14:07:34;102449.00;;;13.63;61.75
51781;BME280;37844;57.126;24.288;2023-04-08T14:10:19;102445.81;;;13.41;61.21
51781;BME280;37844;57.126;24.288;2023-04-08T14:13:03;102441.34;;;13.37;61.57
51781;BME280;37844;57.126;24.288;2023-04-08T14:15:47;102446.41;;;13.32;61.98
51781;BME280;37844;57.126;24.288;2023-04-08T14:18:32;102439.69;;;13.39;62.12
51781;BME280;37844;57.126;24.288;2023-04-08T14:21:16;102439.75;;;13.41;62.10
51781;BME280;37844;57.126;24.288;2023-04-08T14:24:01;102428.50;;;13.40;61.54
51781;BME280;37844;57.126;24.288;2023-04-08T14:26:45;102428.41;;;13.37;61.28